sensor_id;sensor_type;location;lat;lon;timestamp;P1;durP1;ratioP1;P2;durP2;ratioP2
17886;SDS011;9069;52.044;7.472;2023-03-01T00:01:24;8.57;;;3.97;;
17886;SDS011;9069;52.044;7.472;2023-03-01T00:03:53;6.03;;;3.80;;
17886;SDS011;9069;52.044;7.472;2023-03-01T00:06:21;5.50;;;3.63;;
17886;SDS011;9069;52.044;7.472;2023-03-01T00:08:48;6.97;;;3.33;;
17886;SDS011;9069;52.044;7.472;2023-03-01T00:13:45;5.20;;;2.88;;
17886;SDS011;9069;52.044;7.472;2023-03-01T00:16:15;9.55;;;4.00;;
17886;SDS011;9069;52.044;7.472;2023-03-01T00:18:45;9.25;;;3.90;;
17886;SDS011;9069;52.044;7.472;2023-03-01T00:21:12;6.22;;;3.42;;
17886;SDS011;9069;52.044;7.472;2023-03-01T00:23:39;6.38;;;3.67;;
17886;SDS011;9069;52.044;7.472;2023-03-01T00:26:11;8.68;;;3.33;;
17886;SDS011;9069;52.044;7.472;2023-03-01T00:28:39;7.60;;;3.38;;
17886;SDS011;9069;52.044;7.472;2023-03-01T00:31:07;6.38;;;3.65;;
17886;SDS011;9069;52.044;7.472;2023-03-01T00:33:37;6.47;;;3.38;;
17886;SDS011;9069;52.044;7.472;2023-03-01T00:36:04;6.05;;;3.13;;
17886;SDS011;9069;52.044;7.472;2023-03-01T00:38:38;5.78;;;3.30;;
17886;SDS011;9069;52.044;7.472;2023-03-01T00:41:07;7.75;;;3.45;;
17886;SDS011;9069;52.044;7.472;2023-03-01T00:43:36;7.40;;;3.25;;
17886;SDS011;9069;52.044;7.472;2023-03-01T00:46:08;7.07;;;3.50;;
17886;SDS011;9069;52.044;7.472;2023-03-01T00:48:36;5.32;;;3.17;;
17886;SDS011;9069;52.044;7.472;2023-03-01T00:51:04;6.68;;;3.90;;
17886;SDS011;9069;52.044;7.472;2023-03-01T00:53:36;8.35;;;3.50;;
17886;SDS011;9069;52.044;7.472;2023-03-01T00:56:03;8.70;;;3.22;;
17886;SDS011;9069;52.044;7.472;2023-03-01T00:58:31;7.22;;;3.60;;
17886;SDS011;9069;52.044;7.472;2023-03-01T01:00:59;6.88;;;3.90;;
17886;SDS011;9069;52.044;7.472;2023-03-01T01:03:26;5.43;;;3.42;;
17886;SDS011;9069;52.044;7.472;2023-03-01T01:05:53;9.63;;;3.90;;
17886;SDS011;9069;52.044;7.472;2023-03-01T01:08:20;5.78;;;3.35;;
17886;SDS011;9069;52.044;7.472;2023-03-01T01:10:47;6.10;;;3.67;;
17886;SDS011;9069;52.044;7.472;2023-03-01T01:13:14;6.55;;;3.47;;
17886;SDS011;9069;52.044;7.472;2023-03-01T01:15:41;6.00;;;3.55;;
17886;SDS011;9069;52.044;7.472;2023-03-01T01:18:08;5.38;;;3.80;;
17886;SDS011;9069;52.044;7.472;2023-03-01T01:20:35;5.70;;;3.45;;
17886;SDS011;9069;52.044;7.472;2023-03-01T01:23:04;4.70;;;3.03;;
17886;SDS011;9069;52.044;7.472;2023-03-01T01:25:33;7.13;;;3.50;;
17886;SDS011;9069;52.044;7.472;2023-03-01T01:28:02;7.03;;;3.40;;
17886;SDS011;9069;52.044;7.472;2023-03-01T01:30:29;8.67;;;3.43;;
17886;SDS011;9069;52.044;7.472;2023-03-01T01:32:55;6.18;;;3.20;;
17886;SDS011;9069;52.044;7.472;2023-03-01T01:35:22;8.38;;;3.25;;
17886;SDS011;9069;52.044;7.472;2023-03-01T01:37:49;9.02;;;3.28;;
17886;SDS011;9069;52.044;7.472;2023-03-01T01:40:16;8.60;;;4.10;;
17886;SDS011;9069;52.044;7.472;2023-03-01T01:42:43;6.38;;;3.90;;
17886;SDS011;9069;52.044;7.472;2023-03-01T01:45:24;5.32;;;3.08;;
17886;SDS011;9069;52.044;7.472;2023-03-01T01:48:04;6.30;;;3.85;;
17886;SDS011;9069;52.044;7.472;2023-03-01T01:50:36;9.60;;;3.73;;
17886;SDS011;9069;52.044;7.472;2023-03-01T01:53:08;7.80;;;3.70;;
17886;SDS011;9069;52.044;7.472;2023-03-01T01:55:43;10.20;;;4.18;;
17886;SDS011;9069;52.044;7.472;2023-03-01T01:58:15;5.72;;;3.40;;
17886;SDS011;9069;52.044;7.472;2023-03-01T02:00:44;5.25;;;3.13;;
17886;SDS011;9069;52.044;7.472;2023-03-01T02:03:12;9.82;;;3.95;;
17886;SDS011;9069;52.044;7.472;2023-03-01T02:08:25;5.37;;;3.40;;
17886;SDS011;9069;52.044;7.472;2023-03-01T02:10:54;8.57;;;4.25;;
17886;SDS011;9069;52.044;7.472;2023-03-01T02:13:22;4.80;;;3.45;;
17886;SDS011;9069;52.044;7.472;2023-03-01T02:15:49;6.80;;;3.50;;
17886;SDS011;9069;52.044;7.472;2023-03-01T02:18:17;5.90;;;3.25;;
17886;SDS011;9069;52.044;7.472;2023-03-01T02:23:30;6.25;;;3.67;;
17886;SDS011;9069;52.044;7.472;2023-03-01T02:26:04;8.03;;;3.73;;
17886;SDS011;9069;52.044;7.472;2023-03-01T02:28:40;5.65;;;3.63;;
17886;SDS011;9069;52.044;7.472;2023-03-01T02:31:09;10.20;;;3.88;;
17886;SDS011;9069;52.044;7.472;2023-03-01T02:33:59;7.70;;;3.90;;
17886;SDS011;9069;52.044;7.472;2023-03-01T02:36:40;9.65;;;3.92;;
17886;SDS011;9069;52.044;7.472;2023-03-01T02:39:12;5.55;;;3.47;;
17886;SDS011;9069;52.044;7.472;2023-03-01T02:41:44;9.10;;;4.05;;
17886;SDS011;9069;52.044;7.472;2023-03-01T02:44:15;5.85;;;3.65;;
17886;SDS011;9069;52.044;7.472;2023-03-01T02:46:43;5.85;;;3.47;;
17886;SDS011;9069;52.044;7.472;2023-03-01T02:49:46;7.90;;;3.47;;
17886;SDS011;9069;52.044;7.472;2023-03-01T02:55:14;7.43;;;3.85;;
17886;SDS011;9069;52.044;7.472;2023-03-01T02:57:44;4.82;;;3.20;;
17886;SDS011;9069;52.044;7.472;2023-03-01T03:00:17;5.57;;;3.30;;
17886;SDS011;9069;52.044;7.472;2023-03-01T03:02:47;6.35;;;3.40;;
17886;SDS011;9069;52.044;7.472;2023-03-01T03:05:23;7.03;;;3.67;;
17886;SDS011;9069;52.044;7.472;2023-03-01T03:07:55;7.05;;;3.50;;
17886;SDS011;9069;52.044;7.472;2023-03-01T03:10:23;9.35;;;3.95;;
17886;SDS011;9069;52.044;7.472;2023-03-01T03:12:59;6.88;;;3.50;;
17886;SDS011;9069;52.044;7.472;2023-03-01T03:15:33;7.40;;;3.75;;
17886;SDS011;9069;52.044;7.472;2023-03-01T03:18:03;7.20;;;3.53;;
17886;SDS011;9069;52.044;7.472;2023-03-01T03:20:32;7.63;;;3.80;;
17886;SDS011;9069;52.044;7.472;2023-03-01T03:22:59;7.40;;;3.83;;
17886;SDS011;9069;52.044;7.472;2023-03-01T03:25:27;10.57;;;4.10;;
17886;SDS011;9069;52.044;7.472;2023-03-01T03:27:55;7.25;;;3.92;;
17886;SDS011;9069;52.044;7.472;2023-03-01T03:30:29;6.57;;;4.15;;
17886;SDS011;9069;52.044;7.472;2023-03-01T03:32:57;6.07;;;3.17;;
17886;SDS011;9069;52.044;7.472;2023-03-01T03:37:52;4.63;;;3.37;;
17886;SDS011;9069;52.044;7.472;2023-03-01T03:40:33;6.65;;;4.10;;
17886;SDS011;9069;52.044;7.472;2023-03-01T03:43:02;10.23;;;4.28;;
17886;SDS011;9069;52.044;7.472;2023-03-01T03:45:30;4.77;;;2.83;;
17886;SDS011;9069;52.044;7.472;2023-03-01T03:47:59;8.43;;;3.55;;
17886;SDS011;9069;52.044;7.472;2023-03-01T03:50:27;8.45;;;3.92;;
17886;SDS011;9069;52.044;7.472;2023-03-01T03:52:54;5.63;;;3.70;;
17886;SDS011;9069;52.044;7.472;2023-03-01T03:55:21;8.45;;;4.18;;
17886;SDS011;9069;52.044;7.472;2023-03-01T03:57:47;6.93;;;3.40;;
17886;SDS011;9069;52.044;7.472;2023-03-01T04:00:18;7.93;;;4.30;;
17886;SDS011;9069;52.044;7.472;2023-03-01T04:02:47;6.97;;;3.70;;
17886;SDS011;9069;52.044;7.472;2023-03-01T04:05:15;7.80;;;3.72;;
17886;SDS011;9069;52.044;7.472;2023-03-01T04:07:44;5.82;;;3.85;;
17886;SDS011;9069;52.044;7.472;2023-03-01T04:10:12;5.80;;;3.67;;
17886;SDS011;9069;52.044;7.472;2023-03-01T04:12:43;4.65;;;3.03;;
17886;SDS011;9069;52.044;7.472;2023-03-01T04:15:12;8.55;;;4.30;;
17886;SDS011;9069;52.044;7.472;2023-03-01T04:17:40;7.47;;;3.92;;
17886;SDS011;9069;52.044;7.472;2023-03-01T04:20:08;5.72;;;3.58;;
17886;SDS011;9069;52.044;7.472;2023-03-01T04:22:37;5.40;;;3.72;;
17886;SDS011;9069;52.044;7.472;2023-03-01T04:25:04;6.07;;;3.60;;
17886;SDS011;9069;52.044;7.472;2023-03-01T04:27:35;6.07;;;4.05;;
17886;SDS011;9069;52.044;7.472;2023-03-01T04:30:03;7.93;;;4.13;;
17886;SDS011;9069;52.044;7.472;2023-03-01T04:32:30;6.85;;;3.78;;
17886;SDS011;9069;52.044;7.472;2023-03-01T04:34:56;9.65;;;4.72;;
17886;SDS011;9069;52.044;7.472;2023-03-01T04:37:23;6.25;;;3.97;;
17886;SDS011;9069;52.044;7.472;2023-03-01T04:39:53;6.30;;;3.88;;
17886;SDS011;9069;52.044;7.472;2023-03-01T04:42:20;8.20;;;4.38;;
17886;SDS011;9069;52.044;7.472;2023-03-01T04:44:46;5.37;;;3.80;;
17886;SDS011;9069;52.044;7.472;2023-03-01T04:47:13;7.33;;;4.10;;
17886;SDS011;9069;52.044;7.472;2023-03-01T04:49:40;10.67;;;3.97;;
17886;SDS011;9069;52.044;7.472;2023-03-01T04:52:06;5.38;;;4.00;;
17886;SDS011;9069;52.044;7.472;2023-03-01T04:54:33;6.45;;;3.65;;
17886;SDS011;9069;52.044;7.472;2023-03-01T04:57:02;7.05;;;3.90;;
17886;SDS011;9069;52.044;7.472;2023-03-01T04:59:29;5.40;;;3.55;;
17886;SDS011;9069;52.044;7.472;2023-03-01T05:01:56;9.07;;;4.43;;
17886;SDS011;9069;52.044;7.472;2023-03-01T05:04:23;7.80;;;3.80;;
17886;SDS011;9069;52.044;7.472;2023-03-01T05:06:50;8.60;;;4.63;;
17886;SDS011;9069;52.044;7.472;2023-03-01T05:09:19;8.32;;;4.18;;
17886;SDS011;9069;52.044;7.472;2023-03-01T05:11:46;9.68;;;4.43;;
17886;SDS011;9069;52.044;7.472;2023-03-01T05:14:13;7.97;;;4.97;;
17886;SDS011;9069;52.044;7.472;2023-03-01T05:16:39;6.18;;;3.75;;
17886;SDS011;9069;52.044;7.472;2023-03-01T05:19:06;6.47;;;3.97;;
17886;SDS011;9069;52.044;7.472;2023-03-01T05:21:44;7.90;;;4.15;;
17886;SDS011;9069;52.044;7.472;2023-03-01T05:24:31;11.85;;;4.35;;
17886;SDS011;9069;52.044;7.472;2023-03-01T05:26:59;7.25;;;3.78;;
17886;SDS011;9069;52.044;7.472;2023-03-01T05:29:28;7.32;;;4.28;;
17886;SDS011;9069;52.044;7.472;2023-03-01T05:31:57;8.95;;;4.50;;
17886;SDS011;9069;52.044;7.472;2023-03-01T05:34:26;8.88;;;4.47;;
17886;SDS011;9069;52.044;7.472;2023-03-01T05:36:54;6.75;;;4.40;;
17886;SDS011;9069;52.044;7.472;2023-03-01T05:39:21;7.68;;;4.20;;
17886;SDS011;9069;52.044;7.472;2023-03-01T05:41:52;6.50;;;4.32;;
17886;SDS011;9069;52.044;7.472;2023-03-01T05:44:20;6.88;;;4.53;;
17886;SDS011;9069;52.044;7.472;2023-03-01T05:46:47;9.32;;;4.97;;
17886;SDS011;9069;52.044;7.472;2023-03-01T05:49:14;9.43;;;4.53;;
17886;SDS011;9069;52.044;7.472;2023-03-01T05:51:41;7.95;;;4.65;;
17886;SDS011;9069;52.044;7.472;2023-03-01T05:54:09;8.27;;;4.47;;
17886;SDS011;9069;52.044;7.472;2023-03-01T05:56:36;10.05;;;4.82;;
17886;SDS011;9069;52.044;7.472;2023-03-01T05:59:04;8.50;;;4.82;;
17886;SDS011;9069;52.044;7.472;2023-03-01T06:01:31;8.07;;;4.35;;
17886;SDS011;9069;52.044;7.472;2023-03-01T06:03:58;8.70;;;4.30;;
17886;SDS011;9069;52.044;7.472;2023-03-01T06:06:25;9.30;;;4.93;;
17886;SDS011;9069;52.044;7.472;2023-03-01T06:08:54;12.07;;;5.10;;
17886;SDS011;9069;52.044;7.472;2023-03-01T06:11:21;7.45;;;4.40;;
17886;SDS011;9069;52.044;7.472;2023-03-01T06:13:48;12.98;;;4.50;;
17886;SDS011;9069;52.044;7.472;2023-03-01T06:16:15;9.93;;;4.63;;
17886;SDS011;9069;52.044;7.472;2023-03-01T06:18:41;7.40;;;4.45;;
17886;SDS011;9069;52.044;7.472;2023-03-01T06:21:08;11.10;;;5.43;;
17886;SDS011;9069;52.044;7.472;2023-03-01T06:23:35;8.00;;;4.77;;
17886;SDS011;9069;52.044;7.472;2023-03-01T06:26:05;8.97;;;5.40;;
17886;SDS011;9069;52.044;7.472;2023-03-01T06:28:33;7.17;;;5.10;;
17886;SDS011;9069;52.044;7.472;2023-03-01T06:31:01;10.83;;;5.10;;
17886;SDS011;9069;52.044;7.472;2023-03-01T06:33:28;8.43;;;4.60;;
17886;SDS011;9069;52.044;7.472;2023-03-01T06:35:55;11.57;;;5.03;;
17886;SDS011;9069;52.044;7.472;2023-03-01T06:38:23;8.80;;;5.13;;
17886;SDS011;9069;52.044;7.472;2023-03-01T06:40:53;9.05;;;4.70;;
17886;SDS011;9069;52.044;7.472;2023-03-01T06:43:21;8.45;;;4.43;;
17886;SDS011;9069;52.044;7.472;2023-03-01T06:45:47;7.70;;;5.10;;
17886;SDS011;9069;52.044;7.472;2023-03-01T06:48:14;7.35;;;4.45;;
17886;SDS011;9069;52.044;7.472;2023-03-01T06:50:41;7.75;;;4.70;;
17886;SDS011;9069;52.044;7.472;2023-03-01T06:53:08;7.83;;;5.00;;
17886;SDS011;9069;52.044;7.472;2023-03-01T06:55:35;7.53;;;5.28;;
17886;SDS011;9069;52.044;7.472;2023-03-01T06:58:02;9.68;;;5.32;;
17886;SDS011;9069;52.044;7.472;2023-03-01T07:00:29;8.40;;;4.95;;
17886;SDS011;9069;52.044;7.472;2023-03-01T07:03:00;7.47;;;5.03;;
17886;SDS011;9069;52.044;7.472;2023-03-01T07:05:28;15.77;;;7.75;;
17886;SDS011;9069;52.044;7.472;2023-03-01T07:07:55;15.85;;;9.00;;
17886;SDS011;9069;52.044;7.472;2023-03-01T07:10:22;14.03;;;6.87;;
17886;SDS011;9069;52.044;7.472;2023-03-01T07:12:49;12.75;;;6.90;;
17886;SDS011;9069;52.044;7.472;2023-03-01T07:15:16;10.43;;;6.47;;
17886;SDS011;9069;52.044;7.472;2023-03-01T07:17:43;12.43;;;6.20;;
17886;SDS011;9069;52.044;7.472;2023-03-01T07:20:10;12.05;;;5.78;;
17886;SDS011;9069;52.044;7.472;2023-03-01T07:22:39;10.88;;;5.63;;
17886;SDS011;9069;52.044;7.472;2023-03-01T07:25:07;8.80;;;5.57;;
17886;SDS011;9069;52.044;7.472;2023-03-01T07:27:34;11.07;;;5.38;;
17886;SDS011;9069;52.044;7.472;2023-03-01T07:30:01;12.63;;;5.72;;
17886;SDS011;9069;52.044;7.472;2023-03-01T07:32:28;34.08;;;6.72;;
17886;SDS011;9069;52.044;7.472;2023-03-01T07:34:55;11.10;;;6.05;;
17886;SDS011;9069;52.044;7.472;2023-03-01T07:37:22;12.10;;;5.20;;
17886;SDS011;9069;52.044;7.472;2023-03-01T07:39:48;12.15;;;5.75;;
17886;SDS011;9069;52.044;7.472;2023-03-01T07:42:15;10.63;;;5.85;;
17886;SDS011;9069;52.044;7.472;2023-03-01T07:44:41;8.13;;;5.40;;
17886;SDS011;9069;52.044;7.472;2023-03-01T07:47:08;29.98;;;6.90;;
17886;SDS011;9069;52.044;7.472;2023-03-01T07:49:35;44.35;;;8.27;;
17886;SDS011;9069;52.044;7.472;2023-03-01T07:52:02;24.95;;;6.15;;
17886;SDS011;9069;52.044;7.472;2023-03-01T07:54:28;11.63;;;5.60;;
17886;SDS011;9069;52.044;7.472;2023-03-01T07:56:56;9.32;;;5.32;;
17886;SDS011;9069;52.044;7.472;2023-03-01T07:59:23;7.85;;;4.40;;
17886;SDS011;9069;52.044;7.472;2023-03-01T08:01:55;10.75;;;4.63;;
17886;SDS011;9069;52.044;7.472;2023-03-01T08:04:23;9.57;;;5.25;;
17886;SDS011;9069;52.044;7.472;2023-03-01T08:06:51;15.80;;;4.63;;
17886;SDS011;9069;52.044;7.472;2023-03-01T08:09:17;8.60;;;5.13;;
17886;SDS011;9069;52.044;7.472;2023-03-01T08:11:44;8.48;;;4.85;;
17886;SDS011;9069;52.044;7.472;2023-03-01T08:14:11;8.65;;;5.55;;
17886;SDS011;9069;52.044;7.472;2023-03-01T08:16:38;9.05;;;5.00;;
17886;SDS011;9069;52.044;7.472;2023-03-01T08:19:05;8.57;;;4.80;;
17886;SDS011;9069;52.044;7.472;2023-03-01T08:21:37;9.35;;;5.03;;
17886;SDS011;9069;52.044;7.472;2023-03-01T08:24:04;41.75;;;7.90;;
17886;SDS011;9069;52.044;7.472;2023-03-01T08:26:32;7.55;;;4.57;;
17886;SDS011;9069;52.044;7.472;2023-03-01T08:29:00;9.48;;;4.75;;
17886;SDS011;9069;52.044;7.472;2023-03-01T08:33:58;10.98;;;4.45;;
17886;SDS011;9069;52.044;7.472;2023-03-01T08:36:27;6.28;;;4.40;;
17886;SDS011;9069;52.044;7.472;2023-03-01T08:38:55;9.63;;;5.15;;
17886;SDS011;9069;52.044;7.472;2023-03-01T08:41:22;7.32;;;4.13;;
17886;SDS011;9069;52.044;7.472;2023-03-01T08:43:50;8.40;;;4.53;;
17886;SDS011;9069;52.044;7.472;2023-03-01T08:46:17;6.85;;;4.45;;
17886;SDS011;9069;52.044;7.472;2023-03-01T08:48:43;8.60;;;4.68;;
17886;SDS011;9069;52.044;7.472;2023-03-01T08:51:11;8.68;;;4.35;;
17886;SDS011;9069;52.044;7.472;2023-03-01T08:53:44;7.85;;;5.07;;
17886;SDS011;9069;52.044;7.472;2023-03-01T08:56:11;9.18;;;5.18;;
17886;SDS011;9069;52.044;7.472;2023-03-01T08:58:39;11.13;;;4.70;;
17886;SDS011;9069;52.044;7.472;2023-03-01T09:01:06;8.65;;;4.80;;
17886;SDS011;9069;52.044;7.472;2023-03-01T09:03:37;9.43;;;5.20;;
17886;SDS011;9069;52.044;7.472;2023-03-01T09:06:04;8.35;;;4.65;;
17886;SDS011;9069;52.044;7.472;2023-03-01T09:08:37;7.03;;;4.68;;
17886;SDS011;9069;52.044;7.472;2023-03-01T09:11:06;7.18;;;4.80;;
17886;SDS011;9069;52.044;7.472;2023-03-01T09:13:34;9.18;;;4.72;;
17886;SDS011;9069;52.044;7.472;2023-03-01T09:16:01;8.05;;;5.28;;
17886;SDS011;9069;52.044;7.472;2023-03-01T09:18:29;8.52;;;5.15;;
17886;SDS011;9069;52.044;7.472;2023-03-01T09:21:12;9.77;;;5.45;;
17886;SDS011;9069;52.044;7.472;2023-03-01T09:23:45;7.75;;;5.03;;
17886;SDS011;9069;52.044;7.472;2023-03-01T09:26:23;9.43;;;5.32;;
17886;SDS011;9069;52.044;7.472;2023-03-01T09:28:51;10.90;;;5.57;;
17886;SDS011;9069;52.044;7.472;2023-03-01T09:31:19;9.63;;;5.80;;
17886;SDS011;9069;52.044;7.472;2023-03-01T09:33:49;9.32;;;5.88;;
17886;SDS011;9069;52.044;7.472;2023-03-01T09:36:18;10.45;;;5.82;;
17886;SDS011;9069;52.044;7.472;2023-03-01T09:38:47;12.77;;;5.30;;
17886;SDS011;9069;52.044;7.472;2023-03-01T09:44:00;15.65;;;5.95;;
17886;SDS011;9069;52.044;7.472;2023-03-01T09:46:39;9.18;;;5.57;;
17886;SDS011;9069;52.044;7.472;2023-03-01T09:49:14;9.07;;;5.82;;
17886;SDS011;9069;52.044;7.472;2023-03-01T09:51:49;6.28;;;4.68;;
17886;SDS011;9069;52.044;7.472;2023-03-01T09:54:25;16.25;;;5.40;;
17886;SDS011;9069;52.044;7.472;2023-03-01T10:00:00;7.43;;;4.68;;
17886;SDS011;9069;52.044;7.472;2023-03-01T10:03:02;5.85;;;3.90;;
17886;SDS011;9069;52.044;7.472;2023-03-01T10:08:29;5.40;;;3.85;;
17886;SDS011;9069;52.044;7.472;2023-03-01T10:11:03;7.05;;;3.70;;
17886;SDS011;9069;52.044;7.472;2023-03-01T10:17:00;6.50;;;4.47;;
17886;SDS011;9069;52.044;7.472;2023-03-01T10:19:51;9.27;;;4.55;;
17886;SDS011;9069;52.044;7.472;2023-03-01T10:22:20;6.93;;;4.55;;
17886;SDS011;9069;52.044;7.472;2023-03-01T10:24:49;7.28;;;4.28;;
17886;SDS011;9069;52.044;7.472;2023-03-01T10:29:58;10.55;;;5.93;;
17886;SDS011;9069;52.044;7.472;2023-03-01T10:32:43;11.98;;;4.85;;
17886;SDS011;9069;52.044;7.472;2023-03-01T10:35:21;9.05;;;4.85;;
17886;SDS011;9069;52.044;7.472;2023-03-01T10:38:03;6.75;;;4.18;;
17886;SDS011;9069;52.044;7.472;2023-03-01T10:40:36;8.15;;;4.90;;
17886;SDS011;9069;52.044;7.472;2023-03-01T10:43:24;8.38;;;4.63;;
17886;SDS011;9069;52.044;7.472;2023-03-01T10:46:21;7.40;;;4.32;;
17886;SDS011;9069;52.044;7.472;2023-03-01T10:49:05;6.75;;;4.20;;
17886;SDS011;9069;52.044;7.472;2023-03-01T10:51:50;6.40;;;3.92;;
17886;SDS011;9069;52.044;7.472;2023-03-01T10:54:28;9.20;;;4.40;;
17886;SDS011;9069;52.044;7.472;2023-03-01T10:56:57;7.32;;;4.70;;
17886;SDS011;9069;52.044;7.472;2023-03-01T11:02:04;7.10;;;3.88;;
17886;SDS011;9069;52.044;7.472;2023-03-01T11:07:52;10.00;;;4.65;;
17886;SDS011;9069;52.044;7.472;2023-03-01T11:10:22;9.23;;;4.63;;
17886;SDS011;9069;52.044;7.472;2023-03-01T11:12:52;7.38;;;4.68;;
17886;SDS011;9069;52.044;7.472;2023-03-01T11:15:24;9.52;;;4.90;;
17886;SDS011;9069;52.044;7.472;2023-03-01T11:17:55;9.80;;;4.97;;
17886;SDS011;9069;52.044;7.472;2023-03-01T11:20:38;8.10;;;4.43;;
17886;SDS011;9069;52.044;7.472;2023-03-01T11:23:09;9.48;;;4.88;;
17886;SDS011;9069;52.044;7.472;2023-03-01T11:25:59;10.57;;;4.68;;
17886;SDS011;9069;52.044;7.472;2023-03-01T11:28:27;7.22;;;4.43;;
17886;SDS011;9069;52.044;7.472;2023-03-01T11:31:05;6.40;;;4.45;;
17886;SDS011;9069;52.044;7.472;2023-03-01T11:38:55;8.25;;;5.07;;
17886;SDS011;9069;52.044;7.472;2023-03-01T11:41:24;9.07;;;5.03;;
17886;SDS011;9069;52.044;7.472;2023-03-01T11:43:58;10.57;;;5.05;;
17886;SDS011;9069;52.044;7.472;2023-03-01T11:46:32;11.82;;;5.20;;
17886;SDS011;9069;52.044;7.472;2023-03-01T11:49:24;11.20;;;5.20;;
17886;SDS011;9069;52.044;7.472;2023-03-01T12:03:32;8.68;;;5.00;;
17886;SDS011;9069;52.044;7.472;2023-03-01T12:08:54;22.35;;;5.78;;
17886;SDS011;9069;52.044;7.472;2023-03-01T12:17:23;6.50;;;4.10;;
17886;SDS011;9069;52.044;7.472;2023-03-01T12:31:32;7.53;;;3.88;;
17886;SDS011;9069;52.044;7.472;2023-03-01T12:37:02;8.30;;;4.63;;
17886;SDS011;9069;52.044;7.472;2023-03-01T12:48:35;11.13;;;4.32;;
17886;SDS011;9069;52.044;7.472;2023-03-01T12:51:10;7.82;;;4.00;;
17886;SDS011;9069;52.044;7.472;2023-03-01T12:53:44;7.55;;;3.75;;
17886;SDS011;9069;52.044;7.472;2023-03-01T12:56:17;5.32;;;3.90;;
17886;SDS011;9069;52.044;7.472;2023-03-01T12:58:54;6.30;;;3.97;;
17886;SDS011;9069;52.044;7.472;2023-03-01T13:04:14;5.95;;;3.33;;
17886;SDS011;9069;52.044;7.472;2023-03-01T13:09:48;7.60;;;4.00;;
17886;SDS011;9069;52.044;7.472;2023-03-01T13:17:54;5.68;;;3.63;;
17886;SDS011;9069;52.044;7.472;2023-03-01T13:20:24;8.85;;;3.25;;
17886;SDS011;9069;52.044;7.472;2023-03-01T13:25:33;6.55;;;3.25;;
17886;SDS011;9069;52.044;7.472;2023-03-01T13:31:00;7.32;;;3.78;;
17886;SDS011;9069;52.044;7.472;2023-03-01T13:35:55;8.90;;;4.38;;
17886;SDS011;9069;52.044;7.472;2023-03-01T13:41:04;6.13;;;4.03;;
17886;SDS011;9069;52.044;7.472;2023-03-01T13:43:41;9.20;;;4.43;;
17886;SDS011;9069;52.044;7.472;2023-03-01T13:48:53;6.63;;;3.90;;
17886;SDS011;9069;52.044;7.472;2023-03-01T13:51:26;9.52;;;4.35;;
17886;SDS011;9069;52.044;7.472;2023-03-01T13:53:54;6.95;;;4.10;;
17886;SDS011;9069;52.044;7.472;2023-03-01T13:56:33;8.55;;;4.20;;
17886;SDS011;9069;52.044;7.472;2023-03-01T14:01:39;7.97;;;3.92;;
17886;SDS011;9069;52.044;7.472;2023-03-01T14:04:20;7.00;;;3.55;;
17886;SDS011;9069;52.044;7.472;2023-03-01T14:07:38;6.90;;;3.88;;
17886;SDS011;9069;52.044;7.472;2023-03-01T14:09:48;6.20;;;3.67;;
17886;SDS011;9069;52.044;7.472;2023-03-01T14:15:24;5.95;;;3.45;;
17886;SDS011;9069;52.044;7.472;2023-03-01T14:20:43;4.78;;;3.22;;
17886;SDS011;9069;52.044;7.472;2023-03-01T14:23:18;4.30;;;3.03;;
17886;SDS011;9069;52.044;7.472;2023-03-01T14:25:48;5.70;;;3.08;;
17886;SDS011;9069;52.044;7.472;2023-03-01T14:28:21;4.32;;;2.65;;
17886;SDS011;9069;52.044;7.472;2023-03-01T14:31:03;5.72;;;3.50;;
17886;SDS011;9069;52.044;7.472;2023-03-01T14:33:58;4.70;;;2.83;;
17886;SDS011;9069;52.044;7.472;2023-03-01T14:36:26;8.32;;;3.03;;
17886;SDS011;9069;52.044;7.472;2023-03-01T14:38:54;6.93;;;3.22;;
17886;SDS011;9069;52.044;7.472;2023-03-01T14:41:23;4.93;;;3.25;;
17886;SDS011;9069;52.044;7.472;2023-03-01T14:43:57;6.63;;;3.28;;
17886;SDS011;9069;52.044;7.472;2023-03-01T14:46:34;5.32;;;2.72;;
17886;SDS011;9069;52.044;7.472;2023-03-01T14:49:05;6.40;;;3.38;;
17886;SDS011;9069;52.044;7.472;2023-03-01T14:51:39;3.58;;;2.78;;
17886;SDS011;9069;52.044;7.472;2023-03-01T14:54:27;7.53;;;3.42;;
17886;SDS011;9069;52.044;7.472;2023-03-01T14:57:03;5.43;;;3.13;;
17886;SDS011;9069;52.044;7.472;2023-03-01T14:59:32;5.97;;;3.17;;
17886;SDS011;9069;52.044;7.472;2023-03-01T15:01:59;5.80;;;3.05;;
17886;SDS011;9069;52.044;7.472;2023-03-01T15:04:27;6.53;;;2.35;;
17886;SDS011;9069;52.044;7.472;2023-03-01T15:06:54;5.63;;;3.28;;
17886;SDS011;9069;52.044;7.472;2023-03-01T15:09:31;4.22;;;2.83;;
17886;SDS011;9069;52.044;7.472;2023-03-01T15:12:22;5.53;;;3.35;;
17886;SDS011;9069;52.044;7.472;2023-03-01T15:14:53;5.03;;;2.90;;
17886;SDS011;9069;52.044;7.472;2023-03-01T15:20:02;5.60;;;3.20;;
17886;SDS011;9069;52.044;7.472;2023-03-01T15:22:31;4.82;;;2.97;;
17886;SDS011;9069;52.044;7.472;2023-03-01T15:24:58;4.13;;;3.05;;
17886;SDS011;9069;52.044;7.472;2023-03-01T15:27:25;8.23;;;3.10;;
17886;SDS011;9069;52.044;7.472;2023-03-01T15:29:54;7.68;;;3.25;;
17886;SDS011;9069;52.044;7.472;2023-03-01T15:35:01;5.80;;;3.17;;
17886;SDS011;9069;52.044;7.472;2023-03-01T15:38:23;4.38;;;2.60;;
17886;SDS011;9069;52.044;7.472;2023-03-01T15:43:48;5.70;;;2.85;;
17886;SDS011;9069;52.044;7.472;2023-03-01T15:46:17;5.50;;;3.00;;
17886;SDS011;9069;52.044;7.472;2023-03-01T15:49:00;10.13;;;3.38;;
17886;SDS011;9069;52.044;7.472;2023-03-01T15:51:33;7.18;;;3.30;;
17886;SDS011;9069;52.044;7.472;2023-03-01T15:54:05;4.07;;;2.60;;
17886;SDS011;9069;52.044;7.472;2023-03-01T15:56:40;4.70;;;2.88;;
17886;SDS011;9069;52.044;7.472;2023-03-01T15:59:08;4.85;;;3.10;;
17886;SDS011;9069;52.044;7.472;2023-03-01T16:01:37;9.25;;;3.88;;
17886;SDS011;9069;52.044;7.472;2023-03-01T16:04:04;6.40;;;3.80;;
17886;SDS011;9069;52.044;7.472;2023-03-01T16:06:31;7.88;;;3.83;;
17886;SDS011;9069;52.044;7.472;2023-03-01T16:08:58;6.20;;;2.95;;
17886;SDS011;9069;52.044;7.472;2023-03-01T16:11:25;4.28;;;2.65;;
17886;SDS011;9069;52.044;7.472;2023-03-01T16:13:51;6.22;;;3.15;;
17886;SDS011;9069;52.044;7.472;2023-03-01T16:16:18;4.97;;;3.03;;
17886;SDS011;9069;52.044;7.472;2023-03-01T16:18:45;6.43;;;3.70;;
17886;SDS011;9069;52.044;7.472;2023-03-01T16:21:13;5.50;;;3.05;;
17886;SDS011;9069;52.044;7.472;2023-03-01T16:23:45;6.78;;;2.90;;
17886;SDS011;9069;52.044;7.472;2023-03-01T16:26:12;4.97;;;2.83;;
17886;SDS011;9069;52.044;7.472;2023-03-01T16:28:39;5.68;;;3.00;;
17886;SDS011;9069;52.044;7.472;2023-03-01T16:31:07;5.25;;;3.08;;
17886;SDS011;9069;52.044;7.472;2023-03-01T16:33:35;5.72;;;3.65;;
17886;SDS011;9069;52.044;7.472;2023-03-01T16:36:09;9.18;;;3.08;;
17886;SDS011;9069;52.044;7.472;2023-03-01T16:38:37;5.25;;;3.50;;
17886;SDS011;9069;52.044;7.472;2023-03-01T16:41:04;6.18;;;3.75;;
17886;SDS011;9069;52.044;7.472;2023-03-01T16:43:31;6.68;;;3.55;;
17886;SDS011;9069;52.044;7.472;2023-03-01T16:45:58;6.75;;;3.83;;
17886;SDS011;9069;52.044;7.472;2023-03-01T16:48:25;7.43;;;4.05;;
17886;SDS011;9069;52.044;7.472;2023-03-01T16:50:56;7.03;;;3.50;;
17886;SDS011;9069;52.044;7.472;2023-03-01T16:53:27;8.68;;;3.38;;
17886;SDS011;9069;52.044;7.472;2023-03-01T16:55:55;5.80;;;3.42;;
17886;SDS011;9069;52.044;7.472;2023-03-01T16:58:25;7.00;;;3.58;;
17886;SDS011;9069;52.044;7.472;2023-03-01T17:00:52;9.82;;;4.00;;
17886;SDS011;9069;52.044;7.472;2023-03-01T17:03:20;8.75;;;3.80;;
17886;SDS011;9069;52.044;7.472;2023-03-01T17:05:47;6.55;;;3.65;;
17886;SDS011;9069;52.044;7.472;2023-03-01T17:08:14;9.38;;;3.33;;
17886;SDS011;9069;52.044;7.472;2023-03-01T17:10:42;8.32;;;3.67;;
17886;SDS011;9069;52.044;7.472;2023-03-01T17:13:09;7.18;;;4.18;;
17886;SDS011;9069;52.044;7.472;2023-03-01T17:15:40;7.60;;;3.20;;
17886;SDS011;9069;52.044;7.472;2023-03-01T17:18:07;5.70;;;3.60;;
17886;SDS011;9069;52.044;7.472;2023-03-01T17:20:35;5.97;;;3.35;;
17886;SDS011;9069;52.044;7.472;2023-03-01T17:23:02;6.70;;;3.50;;
17886;SDS011;9069;52.044;7.472;2023-03-01T17:25:29;7.93;;;3.38;;
17886;SDS011;9069;52.044;7.472;2023-03-01T17:27:56;8.35;;;4.10;;